SAS548 EHAM-EKCH
Flight info
| Callsign | SAS548 |
|---|---|
| Flight time | N/A |
| Altitude | 37000 |
| Route | ANDIK N873 JUIST DCT DOSUR P729 TUDLO |
| Aircraft | A319/M-SDE3FGHIRWY/LB1 |
Departure
| Time | N/A |
|---|---|
| Airport | Amsterdam Airport Schiphol (EHAM) |
Arrival
| Time | 2026-04-26 14:13 |
|---|---|
| Airport | Copenhagen Kastrup Airport (EKCH) |
| Time | Latitude | Longitude | Altitude | Speed | Heading |
|---|---|---|---|---|---|
| 2026-04-26 13:28 | 53.47958 | 6.79116 | 35288 ft | 455 kts | 42° |
| 2026-04-26 13:28 | 53.50298 | 6.82741 | 35666 ft | 454 kts | 42° |
| 2026-04-26 13:28 | 53.52615 | 6.86334 | 36054 ft | 453 kts | 42° |
| 2026-04-26 13:29 | 53.54931 | 6.89929 | 36394 ft | 452 kts | 42° |
| 2026-04-26 13:29 | 53.57238 | 6.93540 | 36718 ft | 452 kts | 43° |
| 2026-04-26 13:29 | 53.59472 | 6.97167 | 37021 ft | 452 kts | 44° |
| 2026-04-26 13:29 | 53.61702 | 7.00907 | 37224 ft | 453 kts | 45° |
| 2026-04-26 13:30 | 53.63910 | 7.04678 | 37267 ft | 451 kts | 45° |
| 2026-04-26 13:30 | 53.68301 | 7.12210 | 37266 ft | 450 kts | 45° |
| 2026-04-26 13:31 | 53.72710 | 7.19700 | 37266 ft | 450 kts | 45° |
| 2026-04-26 13:31 | 53.77138 | 7.27179 | 37266 ft | 450 kts | 44° |
| 2026-04-26 13:32 | 53.81554 | 7.34674 | 37266 ft | 450 kts | 45° |
| 2026-04-26 13:32 | 53.85955 | 7.42190 | 37268 ft | 450 kts | 45° |
| 2026-04-26 13:33 | 53.90356 | 7.49732 | 37270 ft | 450 kts | 45° |
| 2026-04-26 13:33 | 53.94760 | 7.57284 | 37271 ft | 450 kts | 45° |
| 2026-04-26 13:34 | 53.99165 | 7.64862 | 37272 ft | 450 kts | 45° |
| 2026-04-26 13:34 | 54.03554 | 7.72444 | 37273 ft | 450 kts | 45° |
| 2026-04-26 13:35 | 54.07939 | 7.80063 | 37274 ft | 450 kts | 45° |
| 2026-04-26 13:35 | 54.12318 | 7.87686 | 37274 ft | 450 kts | 45° |
| 2026-04-26 13:36 | 54.16701 | 7.95335 | 37275 ft | 450 kts | 45° |
| 2026-04-26 13:36 | 54.21071 | 8.02988 | 37275 ft | 450 kts | 45° |
| 2026-04-26 13:37 | 54.25413 | 8.10610 | 37275 ft | 450 kts | 45° |
| 2026-04-26 13:37 | 54.29780 | 8.18288 | 37275 ft | 450 kts | 45° |
| 2026-04-26 13:38 | 54.34140 | 8.25985 | 37275 ft | 450 kts | 45° |
| 2026-04-26 13:38 | 54.38489 | 8.33708 | 37275 ft | 450 kts | 45° |
| 2026-04-26 13:39 | 54.42838 | 8.41449 | 37275 ft | 450 kts | 46° |
| 2026-04-26 13:39 | 54.47181 | 8.49208 | 37275 ft | 450 kts | 46° |
| 2026-04-26 13:40 | 54.51516 | 8.56983 | 37275 ft | 450 kts | 46° |
| 2026-04-26 13:40 | 54.55849 | 8.64767 | 37274 ft | 450 kts | 46° |
| 2026-04-26 13:41 | 54.60181 | 8.72562 | 37274 ft | 450 kts | 46° |
| 2026-04-26 13:41 | 54.64503 | 8.80392 | 37274 ft | 450 kts | 46° |
| 2026-04-26 13:42 | 54.68818 | 8.88228 | 37274 ft | 450 kts | 46° |
| 2026-04-26 13:42 | 54.73133 | 8.96070 | 37274 ft | 450 kts | 46° |
| 2026-04-26 13:43 | 54.77442 | 9.03941 | 37273 ft | 450 kts | 46° |
| 2026-04-26 13:43 | 54.81742 | 9.11818 | 37272 ft | 450 kts | 46° |
| 2026-04-26 13:44 | 54.86040 | 9.19730 | 37272 ft | 450 kts | 46° |
| 2026-04-26 13:44 | 54.90215 | 9.27749 | 37271 ft | 450 kts | 48° |
| 2026-04-26 13:45 | 54.94328 | 9.35967 | 37271 ft | 450 kts | 49° |
| 2026-04-26 13:45 | 54.98434 | 9.44202 | 37271 ft | 450 kts | 49° |
| 2026-04-26 13:46 | 55.02558 | 9.52421 | 37019 ft | 450 kts | 48° |
| 2026-04-26 13:46 | 55.04617 | 9.56515 | 36772 ft | 450 kts | 48° |
| 2026-04-26 13:46 | 55.06683 | 9.60625 | 36521 ft | 450 kts | 48° |
| 2026-04-26 13:46 | 55.08716 | 9.64762 | 36270 ft | 450 kts | 52° |
| 2026-04-26 13:47 | 55.10434 | 9.69328 | 36020 ft | 449 kts | 62° |
| 2026-04-26 13:47 | 55.11711 | 9.74312 | 35768 ft | 450 kts | 71° |
| 2026-04-26 13:47 | 55.12656 | 9.79523 | 35524 ft | 450 kts | 73° |
| 2026-04-26 13:47 | 55.13588 | 9.84749 | 35280 ft | 451 kts | 73° |
| 2026-04-26 13:48 | 55.14524 | 9.89981 | 35026 ft | 451 kts | 73° |
| 2026-04-26 13:48 | 55.15462 | 9.95225 | 34557 ft | 452 kts | 73° |
| 2026-04-26 13:48 | 55.16404 | 10.00514 | 33640 ft | 458 kts | 73° |
| 2026-04-26 13:48 | 55.17351 | 10.05862 | 32689 ft | 464 kts | 73° |
| 2026-04-26 13:49 | 55.18307 | 10.11292 | 31693 ft | 468 kts | 73° |
| 2026-04-26 13:49 | 55.19255 | 10.16692 | 30641 ft | 473 kts | 73° |
| 2026-04-26 13:49 | 55.20227 | 10.22238 | 29478 ft | 476 kts | 73° |
| 2026-04-26 13:49 | 55.21188 | 10.27744 | 28261 ft | 470 kts | 73° |
| 2026-04-26 13:50 | 55.22138 | 10.33188 | 27030 ft | 464 kts | 73° |
| 2026-04-26 13:50 | 55.23064 | 10.38518 | 26291 ft | 449 kts | 73° |
| 2026-04-26 13:50 | 55.23957 | 10.43673 | 25548 ft | 439 kts | 73° |
| 2026-04-26 13:50 | 55.24841 | 10.48790 | 24774 ft | 437 kts | 73° |
| 2026-04-26 13:51 | 55.25718 | 10.53882 | 24020 ft | 435 kts | 73° |
| 2026-04-26 13:51 | 55.26588 | 10.58953 | 23261 ft | 432 kts | 73° |
| 2026-04-26 13:51 | 55.27447 | 10.63975 | 22520 ft | 428 kts | 73° |
| 2026-04-26 13:51 | 55.28298 | 10.68947 | 21809 ft | 424 kts | 73° |
| 2026-04-26 13:52 | 55.29146 | 10.73889 | 21107 ft | 419 kts | 73° |
| 2026-04-26 13:52 | 55.29984 | 10.78762 | 20415 ft | 415 kts | 73° |
| 2026-04-26 13:52 | 55.30809 | 10.83584 | 19751 ft | 411 kts | 73° |
| 2026-04-26 13:52 | 55.31612 | 10.88308 | 19109 ft | 407 kts | 73° |
| 2026-04-26 13:53 | 55.32424 | 10.93105 | 18486 ft | 403 kts | 73° |
| 2026-04-26 13:53 | 55.33221 | 10.97804 | 17884 ft | 399 kts | 73° |
| 2026-04-26 13:53 | 55.33996 | 11.02386 | 17303 ft | 395 kts | 73° |
| 2026-04-26 13:53 | 55.34765 | 11.06978 | 16742 ft | 389 kts | 74° |
| 2026-04-26 13:54 | 55.35518 | 11.11514 | 16170 ft | 384 kts | 74° |
| 2026-04-26 13:54 | 55.36257 | 11.15992 | 15594 ft | 379 kts | 74° |
| 2026-04-26 13:54 | 55.36987 | 11.20428 | 15011 ft | 374 kts | 74° |
| 2026-04-26 13:55 | 55.38412 | 11.29113 | 13817 ft | 366 kts | 74° |
| 2026-04-26 13:55 | 55.38889 | 11.32021 | 13410 ft | 364 kts | 74° |
| 2026-04-26 13:55 | 55.40443 | 11.41544 | 12973 ft | 330 kts | 74° |
| 2026-04-26 13:56 | 55.41058 | 11.45328 | 12835 ft | 313 kts | 74° |
| 2026-04-26 13:56 | 55.41593 | 11.48985 | 12392 ft | 306 kts | 77° |
| 2026-04-26 13:56 | 55.42028 | 11.52633 | 11788 ft | 303 kts | 79° |
| 2026-04-26 13:56 | 55.42410 | 11.56272 | 11187 ft | 301 kts | 80° |
| 2026-04-26 13:57 | 55.42776 | 11.59882 | 10602 ft | 298 kts | 80° |
| 2026-04-26 13:57 | 55.43163 | 11.63421 | 10044 ft | 293 kts | 75° |
| 2026-04-26 13:57 | 55.44032 | 11.66611 | 9605 ft | 287 kts | 53° |
| 2026-04-26 13:57 | 55.45221 | 11.69447 | 9456 ft | 289 kts | 53° |
| 2026-04-26 13:58 | 55.46405 | 11.72308 | 9330 ft | 289 kts | 53° |
| 2026-04-26 13:58 | 55.47591 | 11.75177 | 9247 ft | 288 kts | 53° |
| 2026-04-26 13:58 | 55.48764 | 11.78017 | 9267 ft | 289 kts | 53° |
| 2026-04-26 13:58 | 55.49954 | 11.80903 | 9267 ft | 289 kts | 53° |
| 2026-04-26 13:59 | 55.51135 | 11.83767 | 9266 ft | 289 kts | 53° |
| 2026-04-26 13:59 | 55.52316 | 11.86632 | 9266 ft | 289 kts | 53° |
| 2026-04-26 13:59 | 55.53499 | 11.89506 | 9267 ft | 289 kts | 53° |
| 2026-04-26 14:00 | 55.57001 | 11.98005 | 9265 ft | 274 kts | 53° |
| 2026-04-26 14:00 | 55.58092 | 12.00672 | 9258 ft | 262 kts | 54° |
| 2026-04-26 14:00 | 55.58806 | 12.02417 | 9266 ft | 258 kts | 53° |
| 2026-04-26 14:01 | 55.60191 | 12.05796 | 9266 ft | 256 kts | 53° |
| 2026-04-26 14:01 | 55.61237 | 12.08343 | 9265 ft | 256 kts | 53° |
| 2026-04-26 14:01 | 55.62368 | 12.10765 | 9267 ft | 255 kts | 44° |
| 2026-04-26 14:01 | 55.63702 | 12.12826 | 9267 ft | 255 kts | 39° |
| 2026-04-26 14:02 | 55.65054 | 12.14861 | 9267 ft | 255 kts | 39° |
| 2026-04-26 14:02 | 55.66403 | 12.16900 | 9266 ft | 255 kts | 39° |
| 2026-04-26 14:02 | 55.67609 | 12.19190 | 9267 ft | 256 kts | 58° |
| 2026-04-26 14:02 | 55.68273 | 12.22092 | 9266 ft | 255 kts | 80° |
| 2026-04-26 14:03 | 55.68291 | 12.25220 | 9266 ft | 254 kts | 102° |
| 2026-04-26 14:03 | 55.67676 | 12.28126 | 9233 ft | 253 kts | 123° |
| 2026-04-26 14:03 | 55.66529 | 12.30476 | 8646 ft | 251 kts | 143° |
| 2026-04-26 14:03 | 55.65201 | 12.32420 | 8036 ft | 246 kts | 142° |
| 2026-04-26 14:04 | 55.63904 | 12.34358 | 7380 ft | 242 kts | 142° |
| 2026-04-26 14:04 | 55.62617 | 12.36247 | 6679 ft | 239 kts | 147° |
| 2026-04-26 14:04 | 55.61133 | 12.37440 | 6021 ft | 232 kts | 169° |
| 2026-04-26 14:04 | 55.59548 | 12.37618 | 5367 ft | 227 kts | 189° |
| 2026-04-26 14:05 | 55.58060 | 12.36820 | 4761 ft | 223 kts | 210° |
| 2026-04-26 14:05 | 55.56829 | 12.35209 | 4612 ft | 222 kts | 223° |
| 2026-04-26 14:05 | 55.55662 | 12.33408 | 4503 ft | 223 kts | 222° |
| 2026-04-26 14:05 | 55.54499 | 12.31635 | 4364 ft | 223 kts | 222° |
| 2026-04-26 14:06 | 55.53330 | 12.29856 | 4253 ft | 223 kts | 222° |
| 2026-04-26 14:06 | 55.52153 | 12.28064 | 4151 ft | 222 kts | 222° |
| 2026-04-26 14:06 | 55.50917 | 12.26440 | 4030 ft | 223 kts | 206° |
| 2026-04-26 14:06 | 55.49387 | 12.26055 | 3930 ft | 227 kts | 173° |
| 2026-04-26 14:07 | 55.47966 | 12.27250 | 3741 ft | 231 kts | 139° |
| 2026-04-26 14:07 | 55.46885 | 12.29357 | 3526 ft | 231 kts | 133° |
| 2026-04-26 14:07 | 55.45836 | 12.31491 | 3317 ft | 230 kts | 133° |
| 2026-04-26 14:07 | 55.44876 | 12.33744 | 3108 ft | 231 kts | 116° |
| 2026-04-26 14:08 | 55.44657 | 12.36523 | 2913 ft | 233 kts | 81° |
| 2026-04-26 14:08 | 55.45365 | 12.39050 | 2744 ft | 233 kts | 46° |
| 2026-04-26 14:08 | 55.46155 | 12.40340 | 2630 ft | 224 kts | 40° |
| 2026-04-26 14:08 | 55.47290 | 12.42042 | 2503 ft | 203 kts | 39° |
| 2026-04-26 14:09 | 55.48302 | 12.43575 | 2431 ft | 180 kts | 40° |
| 2026-04-26 14:09 | 55.49189 | 12.44929 | 2431 ft | 159 kts | 40° |
| 2026-04-26 14:09 | 55.49998 | 12.46168 | 2341 ft | 151 kts | 39° |
| 2026-04-26 14:09 | 55.50770 | 12.47351 | 2189 ft | 148 kts | 40° |
| 2026-04-26 14:10 | 55.51541 | 12.48534 | 2005 ft | 146 kts | 40° |
| 2026-04-26 14:10 | 55.52305 | 12.49706 | 1821 ft | 145 kts | 39° |
| 2026-04-26 14:10 | 55.53065 | 12.50874 | 1631 ft | 145 kts | 39° |
| 2026-04-26 14:10 | 55.53823 | 12.52039 | 1440 ft | 144 kts | 39° |
| 2026-04-26 14:11 | 55.55330 | 12.54358 | 1058 ft | 143 kts | 40° |
| 2026-04-26 14:11 | 55.56082 | 12.55513 | 872 ft | 143 kts | 40° |
| 2026-04-26 14:11 | 55.56830 | 12.56668 | 690 ft | 142 kts | 40° |
| 2026-04-26 14:12 | 55.57575 | 12.57816 | 485 ft | 141 kts | 40° |
| 2026-04-26 14:12 | 55.58313 | 12.58954 | 294 ft | 140 kts | 40° |
| 2026-04-26 14:12 | 55.59047 | 12.60083 | 119 ft | 140 kts | 40° |
| 2026-04-26 14:12 | 55.59760 | 12.61178 | 16 ft | 126 kts | 42° |
| 2026-04-26 14:13 | 55.60583 | 12.62457 | 21 ft | 48 kts | 41° |
| 2026-04-26 14:13 | 55.60801 | 12.62768 | 20 ft | 30 kts | 27° |
| 2026-04-26 14:13 | 55.60983 | 12.62864 | 17 ft | 21 kts | 12° |
| 2026-04-26 14:14 | 55.61084 | 12.62905 | 17 ft | 10 kts | 12° |
| 2026-04-26 14:14 | 55.61143 | 12.62949 | 19 ft | 11 kts | 36° |
| 2026-04-26 14:14 | 55.61209 | 12.63049 | 17 ft | 14 kts | 40° |
| 2026-04-26 14:14 | 55.61294 | 12.63175 | 17 ft | 17 kts | 40° |
| 2026-04-26 14:15 | 55.61393 | 12.63331 | 17 ft | 21 kts | 42° |
| 2026-04-26 14:15 | 55.61511 | 12.63515 | 17 ft | 24 kts | 41° |
| 2026-04-26 14:15 | 55.61639 | 12.63714 | 17 ft | 24 kts | 41° |
| 2026-04-26 14:15 | 55.61755 | 12.63893 | 19 ft | 22 kts | 40° |
| 2026-04-26 14:16 | 55.61863 | 12.64061 | 18 ft | 21 kts | 35° |
| 2026-04-26 14:16 | 55.62005 | 12.64183 | 17 ft | 24 kts | 26° |
| 2026-04-26 14:16 | 55.62143 | 12.64298 | 17 ft | 19 kts | 25° |
| 2026-04-26 14:16 | 55.62251 | 12.64384 | 16 ft | 13 kts | 16° |
| 2026-04-26 14:17 | 55.62320 | 12.64417 | 19 ft | 8 kts | 15° |
| 2026-04-26 14:17 | 55.62339 | 12.64426 | 18 ft | 1 kts | 14° |
| 2026-04-26 14:17 | 55.62365 | 12.64438 | 17 ft | 7 kts | 16° |
| 2026-04-26 14:17 | 55.62428 | 12.64472 | 17 ft | 13 kts | 16° |
| 2026-04-26 14:18 | 55.62512 | 12.64431 | 17 ft | 15 kts | 302° |
| 2026-04-26 14:18 | 55.62574 | 12.64270 | 17 ft | 15 kts | 314° |
| 2026-04-26 14:18 | 55.62649 | 12.64303 | 17 ft | 11 kts | 22° |
| 2026-04-26 14:18 | 55.62677 | 12.64376 | 17 ft | 6 kts | 102° |
| 2026-04-26 14:19 | 55.62671 | 12.64427 | 18 ft | 3 kts | 101° |
| 2026-04-26 14:19 | 55.62670 | 12.64438 | 17 ft | 0 kts | 101° |